createdAt,value
2023-03-08T00:04:00.594Z,57.02
2023-03-08T00:09:03.017Z,56.96
2023-03-08T00:14:04.954Z,56.78
2023-03-08T00:19:06.881Z,56.80
2023-03-08T00:24:08.731Z,56.78
2023-03-08T00:29:10.736Z,56.77
2023-03-08T00:34:12.496Z,56.56
2023-03-08T00:39:16.564Z,56.77
2023-03-08T00:44:18.332Z,56.72
2023-03-08T00:49:20.190Z,56.64
2023-03-08T00:54:21.930Z,56.50
2023-03-08T00:59:23.781Z,56.45
2023-03-08T01:04:25.880Z,56.76
2023-03-08T01:09:40.337Z,56.18
2023-03-08T01:14:52.710Z,56.39
2023-03-08T01:19:57.420Z,56.56
2023-03-08T01:24:59.323Z,56.15
2023-03-08T01:30:04.020Z,56.48
2023-03-08T01:35:06.340Z,56.54
2023-03-08T01:40:10.879Z,56.67
2023-03-08T01:45:50.643Z,56.46
2023-03-08T01:50:53.049Z,56.45
2023-03-08T01:55:55.474Z,56.40
2023-03-08T02:00:57.755Z,56.73
2023-03-08T02:05:59.694Z,56.40
2023-03-08T02:11:01.848Z,56.59
2023-03-08T02:16:07.919Z,56.76
2023-03-08T02:21:09.943Z,57.07
2023-03-08T02:26:11.952Z,56.85
2023-03-08T02:31:14.747Z,56.77
2023-03-08T02:36:16.374Z,56.88
2023-03-08T02:41:18.071Z,57.08
2023-03-08T02:46:19.885Z,57.17
2023-03-08T02:51:21.716Z,57.06
2023-03-08T02:56:23.640Z,57.10
2023-03-08T03:01:25.836Z,57.29
2023-03-08T03:06:27.737Z,57.19
2023-03-08T03:11:31.463Z,57.14
2023-03-08T03:16:33.809Z,57.50
2023-03-08T03:21:35.727Z,57.41
2023-03-08T03:26:37.543Z,57.31
2023-03-08T03:31:39.342Z,57.53
2023-03-08T03:36:41.124Z,57.72
2023-03-08T03:41:42.864Z,57.64
2023-03-08T03:46:47.595Z,57.80
2023-03-08T03:51:52.708Z,57.84
2023-03-08T03:57:00.319Z,58.08
2023-03-08T04:02:06.273Z,58.21
2023-03-08T04:07:13.801Z,58.42
2023-03-08T04:12:23.327Z,58.46
2023-03-08T04:17:25.481Z,58.90
2023-03-08T04:22:29.379Z,59.00
2023-03-08T04:27:39.718Z,59.25
2023-03-08T04:32:42.513Z,59.34
2023-03-08T04:37:46.818Z,59.23
2023-03-08T04:42:50.779Z,59.59
2023-03-08T04:47:58.183Z,59.39
2023-03-08T04:53:00.053Z,59.78
2023-03-08T04:58:03.455Z,59.54
2023-03-08T05:03:07.007Z,59.79
2023-03-08T05:08:08.997Z,60.02
2023-03-08T05:13:12.216Z,59.86
2023-03-08T05:18:14.682Z,60.25
2023-03-08T05:23:16.621Z,59.96
2023-03-08T05:28:20.255Z,59.97
2023-03-08T05:33:21.951Z,60.19
2023-03-08T05:38:25.290Z,60.41
2023-03-08T05:43:27.994Z,60.59
2023-03-08T05:48:31.553Z,60.75
2023-03-08T05:53:33.778Z,60.70
2023-03-08T05:58:37.384Z,60.73
2023-03-08T06:03:40.379Z,60.82
2023-03-08T06:08:42.527Z,60.76
2023-03-08T06:13:45.292Z,61.86
2023-03-08T06:18:48.069Z,61.09
2023-03-08T06:23:51.949Z,61.11
2023-03-08T06:28:54.386Z,61.54
2023-03-08T06:33:58.173Z,61.77
2023-03-08T06:39:02.722Z,61.78
2023-03-08T06:44:06.431Z,62.34
2023-03-08T06:49:09.172Z,62.61
2023-03-08T06:54:17.351Z,62.21
2023-03-08T06:59:20.822Z,62.40
2023-03-08T07:04:22.539Z,62.35
2023-03-08T07:09:24.199Z,62.41
2023-03-08T07:14:26.663Z,62.65
2023-03-08T07:19:28.355Z,62.70
2023-03-08T07:24:30.119Z,62.68
2023-03-08T07:29:32.236Z,62.50
2023-03-08T07:34:34.072Z,62.81
2023-03-08T07:39:35.856Z,62.74
2023-03-08T07:44:37.940Z,62.87
2023-03-08T07:49:39.628Z,62.77
2023-03-08T07:54:42.111Z,62.84
2023-03-08T07:59:43.791Z,62.55
2023-03-08T08:04:45.653Z,62.93
2023-03-08T08:09:47.427Z,62.55
2023-03-08T08:14:53.263Z,62.83
2023-03-08T08:19:55.099Z,62.73
2023-03-08T08:24:56.889Z,62.76
2023-03-08T08:29:59.386Z,63.02
2023-03-08T08:35:01.072Z,63.24
2023-03-08T08:40:04.082Z,63.83
2023-03-08T08:45:06.440Z,64.65
2023-03-08T08:50:08.914Z,65.49
2023-03-08T08:55:10.670Z,66.19
2023-03-08T09:00:13.035Z,67.14
2023-03-08T09:05:14.800Z,67.89
2023-03-08T09:10:16.875Z,68.28
2023-03-08T09:15:18.676Z,68.78
2023-03-08T09:20:23.195Z,69.10
2023-03-08T09:25:25.341Z,69.25
2023-03-08T09:30:27.136Z,69.57
2023-03-08T09:35:28.936Z,70.28
2023-03-08T09:40:33.643Z,70.58
2023-03-08T09:45:35.898Z,70.63
2023-03-08T09:50:44.613Z,71.17
2023-03-08T09:55:51.851Z,71.28
2023-03-08T10:00:57.195Z,71.60
2023-03-08T10:06:11.708Z,72.28
2023-03-08T10:11:21.178Z,72.78
2023-03-08T10:16:24.932Z,73.29
2023-03-08T10:21:29.442Z,73.73
2023-03-08T10:26:31.321Z,74.56
2023-03-08T10:31:33.812Z,75.37
2023-03-08T10:36:47.778Z,76.29
2023-03-08T10:41:53.248Z,77.14
2023-03-08T10:46:54.889Z,77.64
2023-03-08T10:52:00.969Z,77.94
2023-03-08T10:57:03.094Z,78.42
2023-03-08T11:02:13.805Z,79.01
2023-03-08T11:07:29.092Z,79.80
2023-03-08T11:12:30.775Z,80.52
2023-03-08T11:17:39.456Z,81.28
2023-03-08T11:22:58.605Z,82.06
2023-03-08T11:28:16.721Z,82.64
2023-03-08T11:33:45.548Z,82.85
2023-03-08T11:38:56.831Z,83.54
2023-03-08T11:44:24.134Z,84.60
2023-03-08T11:49:34.776Z,85.23
2023-03-08T11:55:02.436Z,85.21
2023-03-08T12:00:23.085Z,85.56
2023-03-08T12:05:30.442Z,85.72
2023-03-08T12:11:04.766Z,85.90
2023-03-08T12:16:23.168Z,85.95
2023-03-08T12:21:29.934Z,85.59
2023-03-08T12:26:54.686Z,84.73
2023-03-08T12:31:57.227Z,84.19
2023-03-08T12:36:59.029Z,83.85
2023-03-08T12:42:09.862Z,82.86
2023-03-08T12:47:11.683Z,81.96
2023-03-08T12:52:19.635Z,80.70
2023-03-08T12:57:24.603Z,80.10
2023-03-08T13:02:31.032Z,79.13
2023-03-08T13:07:40.061Z,78.60
2023-03-08T13:13:09.615Z,78.11
2023-03-08T13:18:17.558Z,77.76
2023-03-08T13:23:58.708Z,77.35
2023-03-08T13:29:00.880Z,77.12
2023-03-08T13:34:02.652Z,76.78
2023-03-08T13:39:18.691Z,76.01
2023-03-08T13:44:25.812Z,75.52
2023-03-08T13:49:32.489Z,75.17
2023-03-08T13:54:37.311Z,75.13
2023-03-08T13:59:54.647Z,74.17
2023-03-08T14:04:58.694Z,73.65
2023-03-08T14:10:01.232Z,73.55
2023-03-08T14:15:05.652Z,73.29
2023-03-08T14:20:20.892Z,73.40
2023-03-08T14:25:26.229Z,73.10
2023-03-08T14:30:30.527Z,73.59
2023-03-08T14:35:38.561Z,73.40
2023-03-08T14:40:49.252Z,73.01
2023-03-08T14:45:58.287Z,72.55
2023-03-08T14:51:02.257Z,71.64
2023-03-08T14:56:16.874Z,71.33
2023-03-08T15:01:34.327Z,71.38
2023-03-08T15:06:39.365Z,71.18
2023-03-08T15:11:41.468Z,70.97
2023-03-08T15:16:43.249Z,71.39
2023-03-08T15:21:45.286Z,70.64
2023-03-08T15:26:47.051Z,70.64
2023-03-08T15:31:48.857Z,70.58
2023-03-08T15:36:51.923Z,70.10
2023-03-08T15:41:53.647Z,70.00
2023-03-08T15:46:56.141Z,69.71
2023-03-08T15:51:57.862Z,69.84
2023-03-08T15:56:59.738Z,69.39
2023-03-08T16:02:02.390Z,69.27
2023-03-08T16:07:04.390Z,69.63
2023-03-08T16:12:06.498Z,69.45
2023-03-08T16:17:09.053Z,69.42
2023-03-08T16:22:11.159Z,69.33
2023-03-08T16:27:12.941Z,69.45
2023-03-08T16:32:18.555Z,69.12
2023-03-08T16:37:21.239Z,68.96
2023-03-08T16:42:23.045Z,69.03
2023-03-08T16:47:26.609Z,69.00
2023-03-08T16:52:29.086Z,68.85
2023-03-08T16:57:30.876Z,69.25
2023-03-08T17:02:32.668Z,68.72
2023-03-08T17:07:34.615Z,69.49
2023-03-08T17:12:36.363Z,69.91
2023-03-08T17:17:39.701Z,70.13
2023-03-08T17:22:42.607Z,70.34
2023-03-08T17:27:44.344Z,70.58
2023-03-08T17:32:47.451Z,70.51
2023-03-08T17:37:50.088Z,70.55
2023-03-08T17:42:51.965Z,70.54
2023-03-08T17:48:00.609Z,70.49
2023-03-08T17:53:02.873Z,70.50
2023-03-08T17:58:04.527Z,70.36
2023-03-08T18:03:06.324Z,70.31
2023-03-08T18:08:07.941Z,70.62
2023-03-08T18:13:10.289Z,70.81
2023-03-08T18:18:11.908Z,70.53
2023-03-08T18:23:13.612Z,69.40
2023-03-08T18:28:23.557Z,68.85
2023-03-08T18:33:28.387Z,71.49
2023-03-08T18:38:30.071Z,73.87
2023-03-08T18:43:32.809Z,76.02
2023-03-08T18:48:34.542Z,78.94
2023-03-08T18:53:37.110Z,81.34
2023-03-08T18:58:38.886Z,82.72
2023-03-08T19:03:41.742Z,83.43
2023-03-08T19:08:43.755Z,83.76
2023-03-08T19:13:46.790Z,83.78
2023-03-08T19:18:50.382Z,82.92
2023-03-08T19:23:52.422Z,82.16
2023-03-08T19:28:54.241Z,80.63
2023-03-08T19:33:56.577Z,79.55
2023-03-08T19:38:59.840Z,78.77
2023-03-08T19:44:06.929Z,78.53
2023-03-08T19:49:12.864Z,78.21
2023-03-08T19:54:14.868Z,77.88
2023-03-08T19:59:17.346Z,77.58
2023-03-08T20:04:19.969Z,76.94
2023-03-08T20:09:22.474Z,76.91
2023-03-08T20:14:24.719Z,76.68
2023-03-08T20:19:27.335Z,76.64
2023-03-08T20:24:29.412Z,76.92
2023-03-08T20:29:31.121Z,77.50
2023-03-08T20:34:33.417Z,78.06
2023-03-08T20:39:35.064Z,78.38
2023-03-08T20:44:36.792Z,79.93
2023-03-08T20:49:40.182Z,81.57
2023-03-08T20:54:42.424Z,83.43
2023-03-08T20:59:44.295Z,84.42
2023-03-08T21:04:46.055Z,85.07
2023-03-08T21:09:47.994Z,85.37
2023-03-08T21:14:53.930Z,86.04
2023-03-08T21:19:56.099Z,87.06
2023-03-08T21:24:57.862Z,87.45
2023-03-08T21:30:00.409Z,87.65
2023-03-08T21:35:02.470Z,87.74
2023-03-08T21:40:07.155Z,88.02
2023-03-08T21:45:09.434Z,88.03
2023-03-08T21:50:11.748Z,88.07
2023-03-08T21:55:13.445Z,87.71
2023-03-08T22:00:18.271Z,87.64
2023-03-08T22:05:20.037Z,87.80
2023-03-08T22:10:21.922Z,88.03
2023-03-08T22:15:23.621Z,87.73
2023-03-08T22:20:27.460Z,87.38
2023-03-08T22:25:29.192Z,87.07
2023-03-08T22:30:31.038Z,87.22
2023-03-08T22:35:32.755Z,86.20
2023-03-08T22:40:38.248Z,85.95
2023-03-08T22:45:40.007Z,86.67
2023-03-08T22:50:41.975Z,87.37
2023-03-08T22:55:47.668Z,87.90
2023-03-08T23:00:49.732Z,88.53
2023-03-08T23:05:53.168Z,88.44
2023-03-08T23:10:55.166Z,88.52
2023-03-08T23:15:56.855Z,87.88
2023-03-08T23:21:06.566Z,88.16
2023-03-08T23:26:12.131Z,88.30
2023-03-08T23:31:15.276Z,89.03
2023-03-08T23:36:20.104Z,89.69
2023-03-08T23:41:22.180Z,90.14
2023-03-08T23:46:25.068Z,90.25
2023-03-08T23:51:28.128Z,90.31
2023-03-08T23:56:38.492Z,90.02
